Port Heiden, Alaska
Current Conditions -  °F | °C
As of 12:16 AM on Thursday 27 Nov 2014 (Local Time) from PAPH Reporting Station
Clear Clear  
Wind Chill: -2°   Ceiling: Unl
Heat Index:   Visibility: 10mi
Dew Point: -4°   Wind: 7mph
Humidity: 70%   Direction: 120°ESE
Pressure: 30.2"   Gusts: NA
Location:  56.95°N, 158.63°W
Report Text: PAPH 270916Z AUTO 12006KT 10SM CLR 01/M04 A3020 RMK AO1
Loading
Personal Weather Stations






























Interactive Weather Map New forecast layout! Learn more

10-Day Weather Forecast

Advertisements
Track Severe Weather on mobile